SBBRSBGO

Guest
Details From SBBR - Brasilia Presidente Juscelino Kubitsch
To SBGO - Santo Genoveva
Flight Number -
Tags Generated
Created
Modified
Stats Distance 88 nm / 163 km
Max Altitude 0 ft / 0 m
Waypoints 2
Social Downloads 3
Likes 0
Share VATSIM

Download

Looking for another format? Having issues loading an existing format? Contact us
Advertisement - Login to hide

Notes

Generated

Route

SBBR SBGO

ID Type Via Altitude Latitude Longitude Leg Dist Tot Dist Heading (true) Name
O SBBR APT - 0 ft / 0 m -15.86350˚ -47.92758˚ - 0 nm - -
O SBGO APT - 0 ft / 0 m -16.62634˚ -49.23081˚ 88 nm 88 nm 238° / 239° -

Altitude Profile

Advertisement - Login to hide

SBBR

Details ICAO SBBR (BSB)
Name Brasilia Presidente Juscelino Kubitsch
Region Brazil
Timezone America/Sao_Paulo (UTC-2.0)
Stats Elevation 3,479 ft / 1,060 m (AMSL)
Location -15.871101° -47.918626°
Runways 2
Magnetic Variation 21.550° W

METAR

SBBR 181600Z 07008KT 9999 BKN033 FEW040TCU 27/17 Q1019

Decode

TAF

TAF SBBR 180800Z 1812/1912 06005KT 9999 FEW020 TX26/1817Z TN19/1907Z BECMG 1814/1815 35005KT SCT035 BECMG 1817/1818 29006KT FEW035 FEW040TCU PROB40 1818/1822 30007KT VCTS SCT035 FEW040CB BECMG 1820/1822 28005KT SCT030 BECMG 1900/1902 03005KT FEW035 BECMG 1908/1910 04004KT SCT020 RMK PEW

Decode

Departure Runways

ID Width Length Bearing (true) Bearing (mag) Surface Threshold Offset Overrun Length
11L 148 ft / 45 m 10,493 ft / 3,198 m 86.35° 107.90° Asphalt 0 ft / 0 m 200 ft / 61 m
11R 148 ft / 45 m 10,839 ft / 3,304 m 86.00° 107.55° Asphalt 2,635 ft / 803 m 200 ft / 61 m
29L 148 ft / 45 m 10,839 ft / 3,304 m 265.99° 287.54° Asphalt 0 ft / 0 m 200 ft / 61 m
29R 148 ft / 45 m 10,493 ft / 3,198 m 266.34° 287.89° Asphalt 0 ft / 0 m 200 ft / 61 m

SBGO

Details ICAO SBGO (GYN)
Name Santo Genoveva
Region Brazil
Timezone America/Sao_Paulo (UTC-2.0)
Stats Elevation 2,450 ft / 747 m (AMSL)
Location -16.632032° -49.220686°
Runways 1
Magnetic Variation 20.990° W

METAR

SBGO 181600Z 02005KT 9999 BKN045 FEW048TCU 29/15 Q1017

Decode

TAF

TAF SBGO 180800Z 1812/1912 31006KT CAVOK TX25/1818Z TN20/1909Z BECMG 1813/1815 32007KT SCT030 BECMG 1822/1823 29004KT FEW025 BECMG 1902/1904 30004KT FEW040 BECMG 1910/1912 28007KT SCT015 RMK PEW

Decode

Destination Runways

ID Width Length Bearing (true) Bearing (mag) Surface Threshold Offset Overrun Length
14 148 ft / 45 m 8,208 ft / 2,502 m 120.42° 141.41° Asphalt 0 ft / 0 m 0 ft / 0 m
32 148 ft / 45 m 8,208 ft / 2,502 m 300.41° 321.40° Asphalt 980 ft / 299 m 0 ft / 0 m

Popular Alternatives